Lackland, Texas
Current Conditions -  °F | °C
As of 1:08 PM on Monday 20 Oct 2014 (Local Time) from KSKF Reporting Station
Scattered Clouds Scattered Clouds  
Wind Chill: 82°   Ceiling: Unl
Heat Index: 83°   Visibility: 10mi
Dew Point: 61°   Wind: 8mph
Humidity: 48%   Direction: 60°ENE
Pressure: 30.03"   Gusts: NA
Location:  29.3853°N, 98.6099°W
Report Text: KSKF 201808Z AUTO 06007KT 10SM SCT039 SCT055 28/16 A3003 RMK AO2 $
Loading
Personal Weather Stations






























Interactive Weather Map
Tropical Storm Tracking
New forecast layout! Learn more

10-Day Weather Forecast

Advertisements
Track Severe Weather on mobile